sensor_id;sensor_type;location;lat;lon;timestamp;temperature;humidity
49829;DHT22;35723;51.194;5.112;2023-11-19T00:00:31;14.30;99.90
49829;DHT22;35723;51.194;5.112;2023-11-19T00:02:57;14.40;99.90
49829;DHT22;35723;51.194;5.112;2023-11-19T00:05:23;14.40;99.90
49829;DHT22;35723;51.194;5.112;2023-11-19T00:07:48;14.40;99.90
49829;DHT22;35723;51.194;5.112;2023-11-19T00:10:15;14.30;99.90
49829;DHT22;35723;51.194;5.112;2023-11-19T00:12:45;14.20;99.90
49829;DHT22;35723;51.194;5.112;2023-11-19T00:15:12;14.20;99.90
49829;DHT22;35723;51.194;5.112;2023-11-19T00:17:42;14.30;99.90
49829;DHT22;35723;51.194;5.112;2023-11-19T00:20:15;14.40;99.90
49829;DHT22;35723;51.194;5.112;2023-11-19T00:22:44;14.40;99.90
49829;DHT22;35723;51.194;5.112;2023-11-19T00:25:14;14.20;99.90
49829;DHT22;35723;51.194;5.112;2023-11-19T00:27:39;14.20;99.90
49829;DHT22;35723;51.194;5.112;2023-11-19T00:30:06;14.20;99.90
49829;DHT22;35723;51.194;5.112;2023-11-19T00:32:35;14.20;99.90
49829;DHT22;35723;51.194;5.112;2023-11-19T00:35:01;14.20;99.90
49829;DHT22;35723;51.194;5.112;2023-11-19T00:37:28;14.20;99.90
49829;DHT22;35723;51.194;5.112;2023-11-19T00:39:54;14.20;99.90
49829;DHT22;35723;51.194;5.112;2023-11-19T00:42:22;14.20;99.90
49829;DHT22;35723;51.194;5.112;2023-11-19T00:44:48;14.20;99.90
49829;DHT22;35723;51.194;5.112;2023-11-19T00:47:14;14.20;99.90
49829;DHT22;35723;51.194;5.112;2023-11-19T00:49:39;14.10;99.90
49829;DHT22;35723;51.194;5.112;2023-11-19T00:52:05;14.20;99.90
49829;DHT22;35723;51.194;5.112;2023-11-19T00:54:32;14.20;99.90
49829;DHT22;35723;51.194;5.112;2023-11-19T00:56:58;14.30;99.90
49829;DHT22;35723;51.194;5.112;2023-11-19T00:59:23;14.40;99.90
49829;DHT22;35723;51.194;5.112;2023-11-19T01:01:49;14.60;99.90
49829;DHT22;35723;51.194;5.112;2023-11-19T01:04:16;14.50;99.90
49829;DHT22;35723;51.194;5.112;2023-11-19T01:06:42;14.50;99.90
49829;DHT22;35723;51.194;5.112;2023-11-19T01:09:08;14.20;99.90
49829;DHT22;35723;51.194;5.112;2023-11-19T01:11:34;14.20;99.90
49829;DHT22;35723;51.194;5.112;2023-11-19T01:14:00;14.30;99.90
49829;DHT22;35723;51.194;5.112;2023-11-19T01:16:26;14.20;99.90
49829;DHT22;35723;51.194;5.112;2023-11-19T01:18:51;14.10;99.90
49829;DHT22;35723;51.194;5.112;2023-11-19T01:21:18;14.00;99.90
49829;DHT22;35723;51.194;5.112;2023-11-19T01:23:44;14.10;99.90
49829;DHT22;35723;51.194;5.112;2023-11-19T01:26:10;14.20;99.90
49829;DHT22;35723;51.194;5.112;2023-11-19T01:28:36;14.30;99.90
49829;DHT22;35723;51.194;5.112;2023-11-19T01:31:02;14.40;99.90
49829;DHT22;35723;51.194;5.112;2023-11-19T01:33:29;14.50;99.90
49829;DHT22;35723;51.194;5.112;2023-11-19T01:35:55;14.40;99.90
49829;DHT22;35723;51.194;5.112;2023-11-19T01:38:24;14.50;99.90
49829;DHT22;35723;51.194;5.112;2023-11-19T01:40:50;14.30;99.90
49829;DHT22;35723;51.194;5.112;2023-11-19T01:43:34;14.30;99.90
49829;DHT22;35723;51.194;5.112;2023-11-19T01:46:01;14.40;99.90
49829;DHT22;35723;51.194;5.112;2023-11-19T01:48:29;14.40;99.90
49829;DHT22;35723;51.194;5.112;2023-11-19T01:50:56;14.40;99.90
49829;DHT22;35723;51.194;5.112;2023-11-19T01:53:22;14.50;99.90
49829;DHT22;35723;51.194;5.112;2023-11-19T01:55:48;14.40;99.90
49829;DHT22;35723;51.194;5.112;2023-11-19T01:58:15;14.30;99.90
49829;DHT22;35723;51.194;5.112;2023-11-19T02:00:41;14.20;99.90
49829;DHT22;35723;51.194;5.112;2023-11-19T02:03:07;14.10;99.90
49829;DHT22;35723;51.194;5.112;2023-11-19T02:05:37;14.00;99.90
49829;DHT22;35723;51.194;5.112;2023-11-19T02:08:04;13.90;99.90
49829;DHT22;35723;51.194;5.112;2023-11-19T02:10:29;14.00;99.90
49829;DHT22;35723;51.194;5.112;2023-11-19T02:12:57;14.10;99.90
49829;DHT22;35723;51.194;5.112;2023-11-19T02:15:23;14.10;99.90
49829;DHT22;35723;51.194;5.112;2023-11-19T02:17:50;14.00;99.90
49829;DHT22;35723;51.194;5.112;2023-11-19T02:20:16;14.10;99.90
49829;DHT22;35723;51.194;5.112;2023-11-19T02:22:48;14.00;99.90
49829;DHT22;35723;51.194;5.112;2023-11-19T02:25:30;14.10;99.90
49829;DHT22;35723;51.194;5.112;2023-11-19T02:28:02;14.10;99.90
49829;DHT22;35723;51.194;5.112;2023-11-19T02:30:29;14.00;99.90
49829;DHT22;35723;51.194;5.112;2023-11-19T02:33:03;14.00;99.90
49829;DHT22;35723;51.194;5.112;2023-11-19T02:35:31;14.00;99.90
49829;DHT22;35723;51.194;5.112;2023-11-19T02:37:58;14.10;99.90
49829;DHT22;35723;51.194;5.112;2023-11-19T02:40:25;13.90;99.90
49829;DHT22;35723;51.194;5.112;2023-11-19T02:42:54;13.80;99.90
49829;DHT22;35723;51.194;5.112;2023-11-19T02:45:24;13.80;99.90
49829;DHT22;35723;51.194;5.112;2023-11-19T02:47:51;13.80;99.90
49829;DHT22;35723;51.194;5.112;2023-11-19T02:50:21;13.90;99.90
49829;DHT22;35723;51.194;5.112;2023-11-19T02:52:54;14.00;99.90
49829;DHT22;35723;51.194;5.112;2023-11-19T02:55:22;14.10;99.90
49829;DHT22;35723;51.194;5.112;2023-11-19T02:57:49;14.10;99.90
49829;DHT22;35723;51.194;5.112;2023-11-19T03:00:19;14.10;99.90
49829;DHT22;35723;51.194;5.112;2023-11-19T03:02:49;14.10;99.90
49829;DHT22;35723;51.194;5.112;2023-11-19T03:05:24;14.10;99.90
49829;DHT22;35723;51.194;5.112;2023-11-19T03:07:50;14.20;99.90
49829;DHT22;35723;51.194;5.112;2023-11-19T03:10:15;14.20;99.90
49829;DHT22;35723;51.194;5.112;2023-11-19T03:12:43;14.10;99.90
49829;DHT22;35723;51.194;5.112;2023-11-19T03:15:10;14.00;99.90
49829;DHT22;35723;51.194;5.112;2023-11-19T03:17:38;13.90;99.90
49829;DHT22;35723;51.194;5.112;2023-11-19T03:20:06;13.80;99.90
49829;DHT22;35723;51.194;5.112;2023-11-19T03:22:36;13.80;99.90
49829;DHT22;35723;51.194;5.112;2023-11-19T03:25:02;13.90;99.90
49829;DHT22;35723;51.194;5.112;2023-11-19T03:27:27;14.00;99.90
49829;DHT22;35723;51.194;5.112;2023-11-19T03:29:53;14.00;99.90
49829;DHT22;35723;51.194;5.112;2023-11-19T03:32:19;14.00;99.90
49829;DHT22;35723;51.194;5.112;2023-11-19T03:34:45;14.00;99.90
49829;DHT22;35723;51.194;5.112;2023-11-19T03:37:11;14.10;99.90
49829;DHT22;35723;51.194;5.112;2023-11-19T03:39:37;14.10;99.90
49829;DHT22;35723;51.194;5.112;2023-11-19T03:42:02;14.10;99.90
49829;DHT22;35723;51.194;5.112;2023-11-19T03:44:29;14.10;99.90
49829;DHT22;35723;51.194;5.112;2023-11-19T03:46:54;14.10;99.90
49829;DHT22;35723;51.194;5.112;2023-11-19T03:49:20;14.20;99.90
49829;DHT22;35723;51.194;5.112;2023-11-19T03:51:45;14.00;99.90
49829;DHT22;35723;51.194;5.112;2023-11-19T03:54:11;14.10;99.90
49829;DHT22;35723;51.194;5.112;2023-11-19T03:56:37;14.00;99.90
49829;DHT22;35723;51.194;5.112;2023-11-19T03:59:03;13.90;99.90
49829;DHT22;35723;51.194;5.112;2023-11-19T04:01:28;14.00;99.90
49829;DHT22;35723;51.194;5.112;2023-11-19T04:03:54;14.00;99.90
49829;DHT22;35723;51.194;5.112;2023-11-19T04:06:21;14.10;99.90
49829;DHT22;35723;51.194;5.112;2023-11-19T04:08:47;14.10;99.90
49829;DHT22;35723;51.194;5.112;2023-11-19T04:11:12;14.00;99.90
49829;DHT22;35723;51.194;5.112;2023-11-19T04:13:38;13.80;99.90
49829;DHT22;35723;51.194;5.112;2023-11-19T04:16:04;13.80;99.90
49829;DHT22;35723;51.194;5.112;2023-11-19T04:18:30;13.80;99.90
49829;DHT22;35723;51.194;5.112;2023-11-19T04:20:57;13.90;99.90
49829;DHT22;35723;51.194;5.112;2023-11-19T04:23:23;14.00;99.90
49829;DHT22;35723;51.194;5.112;2023-11-19T04:25:50;14.00;99.90
49829;DHT22;35723;51.194;5.112;2023-11-19T04:28:16;13.80;99.90
49829;DHT22;35723;51.194;5.112;2023-11-19T04:30:41;13.70;99.90
49829;DHT22;35723;51.194;5.112;2023-11-19T04:33:07;13.70;99.90
49829;DHT22;35723;51.194;5.112;2023-11-19T04:35:33;13.70;99.90
49829;DHT22;35723;51.194;5.112;2023-11-19T04:37:58;13.60;99.90
49829;DHT22;35723;51.194;5.112;2023-11-19T04:40:24;13.60;99.90
49829;DHT22;35723;51.194;5.112;2023-11-19T04:42:50;13.60;99.90
49829;DHT22;35723;51.194;5.112;2023-11-19T04:45:16;13.40;99.90
49829;DHT22;35723;51.194;5.112;2023-11-19T04:47:42;13.40;99.90
49829;DHT22;35723;51.194;5.112;2023-11-19T04:50:08;13.30;99.90
49829;DHT22;35723;51.194;5.112;2023-11-19T04:52:40;13.20;99.90
49829;DHT22;35723;51.194;5.112;2023-11-19T04:55:06;13.20;99.90
49829;DHT22;35723;51.194;5.112;2023-11-19T04:57:32;13.20;99.90
49829;DHT22;35723;51.194;5.112;2023-11-19T04:59:58;13.40;99.90
49829;DHT22;35723;51.194;5.112;2023-11-19T05:02:24;13.50;99.90
49829;DHT22;35723;51.194;5.112;2023-11-19T05:04:50;13.40;99.90
49829;DHT22;35723;51.194;5.112;2023-11-19T05:07:15;13.40;99.90
49829;DHT22;35723;51.194;5.112;2023-11-19T05:09:41;13.30;99.90
49829;DHT22;35723;51.194;5.112;2023-11-19T05:12:08;13.30;99.90
49829;DHT22;35723;51.194;5.112;2023-11-19T05:14:37;13.40;99.90
49829;DHT22;35723;51.194;5.112;2023-11-19T05:17:03;13.30;99.90
49829;DHT22;35723;51.194;5.112;2023-11-19T05:19:29;13.30;99.90
49829;DHT22;35723;51.194;5.112;2023-11-19T05:21:54;13.30;99.90
49829;DHT22;35723;51.194;5.112;2023-11-19T05:24:20;13.30;99.90
49829;DHT22;35723;51.194;5.112;2023-11-19T05:26:46;13.30;99.90
49829;DHT22;35723;51.194;5.112;2023-11-19T05:29:12;13.10;99.90
49829;DHT22;35723;51.194;5.112;2023-11-19T05:31:38;13.10;99.90
49829;DHT22;35723;51.194;5.112;2023-11-19T05:34:04;13.20;99.90
49829;DHT22;35723;51.194;5.112;2023-11-19T05:36:30;13.20;99.90
49829;DHT22;35723;51.194;5.112;2023-11-19T05:38:55;13.40;99.90
49829;DHT22;35723;51.194;5.112;2023-11-19T05:41:21;13.30;99.90
49829;DHT22;35723;51.194;5.112;2023-11-19T05:43:47;13.30;99.90
49829;DHT22;35723;51.194;5.112;2023-11-19T05:46:12;13.30;99.90
49829;DHT22;35723;51.194;5.112;2023-11-19T05:48:39;13.30;99.90
49829;DHT22;35723;51.194;5.112;2023-11-19T05:51:05;13.20;99.90
49829;DHT22;35723;51.194;5.112;2023-11-19T05:53:31;13.20;99.90
49829;DHT22;35723;51.194;5.112;2023-11-19T05:55:57;13.10;99.90
49829;DHT22;35723;51.194;5.112;2023-11-19T05:58:26;13.20;99.90
49829;DHT22;35723;51.194;5.112;2023-11-19T06:00:55;13.30;99.90
49829;DHT22;35723;51.194;5.112;2023-11-19T06:03:21;13.20;99.90
49829;DHT22;35723;51.194;5.112;2023-11-19T06:05:50;13.20;99.90
49829;DHT22;35723;51.194;5.112;2023-11-19T06:08:16;13.10;99.90
49829;DHT22;35723;51.194;5.112;2023-11-19T06:10:42;13.00;99.90
49829;DHT22;35723;51.194;5.112;2023-11-19T06:13:09;13.00;99.90
49829;DHT22;35723;51.194;5.112;2023-11-19T06:15:36;13.10;99.90
49829;DHT22;35723;51.194;5.112;2023-11-19T06:18:02;13.20;99.90
49829;DHT22;35723;51.194;5.112;2023-11-19T06:20:33;13.30;99.90
49829;DHT22;35723;51.194;5.112;2023-11-19T06:22:59;13.30;99.90
49829;DHT22;35723;51.194;5.112;2023-11-19T06:25:25;13.30;99.90
49829;DHT22;35723;51.194;5.112;2023-11-19T06:27:51;13.30;99.90
49829;DHT22;35723;51.194;5.112;2023-11-19T06:30:18;13.40;99.90
49829;DHT22;35723;51.194;5.112;2023-11-19T06:32:43;13.30;99.90
49829;DHT22;35723;51.194;5.112;2023-11-19T06:35:09;13.40;99.90
49829;DHT22;35723;51.194;5.112;2023-11-19T06:37:37;13.20;99.90
49829;DHT22;35723;51.194;5.112;2023-11-19T06:40:04;13.10;99.90
49829;DHT22;35723;51.194;5.112;2023-11-19T06:42:30;13.10;99.90
49829;DHT22;35723;51.194;5.112;2023-11-19T06:44:56;13.10;99.90
49829;DHT22;35723;51.194;5.112;2023-11-19T06:47:26;13.10;99.90
49829;DHT22;35723;51.194;5.112;2023-11-19T06:49:53;13.20;99.90
49829;DHT22;35723;51.194;5.112;2023-11-19T06:52:19;13.10;99.90
49829;DHT22;35723;51.194;5.112;2023-11-19T06:54:44;13.20;99.90
49829;DHT22;35723;51.194;5.112;2023-11-19T06:57:11;13.30;99.90
49829;DHT22;35723;51.194;5.112;2023-11-19T06:59:37;13.30;99.90
49829;DHT22;35723;51.194;5.112;2023-11-19T07:02:03;13.30;99.90
49829;DHT22;35723;51.194;5.112;2023-11-19T07:04:30;13.20;99.90
49829;DHT22;35723;51.194;5.112;2023-11-19T07:06:56;13.20;99.90
49829;DHT22;35723;51.194;5.112;2023-11-19T07:09:23;13.20;99.90
49829;DHT22;35723;51.194;5.112;2023-11-19T07:11:49;13.10;99.90
49829;DHT22;35723;51.194;5.112;2023-11-19T07:14:19;13.10;99.90
49829;DHT22;35723;51.194;5.112;2023-11-19T07:16:45;13.10;99.90
49829;DHT22;35723;51.194;5.112;2023-11-19T07:19:11;13.20;99.90
49829;DHT22;35723;51.194;5.112;2023-11-19T07:21:41;13.20;99.90
49829;DHT22;35723;51.194;5.112;2023-11-19T07:24:09;13.30;99.90
49829;DHT22;35723;51.194;5.112;2023-11-19T07:26:36;13.30;99.90
49829;DHT22;35723;51.194;5.112;2023-11-19T07:29:03;13.30;99.90
49829;DHT22;35723;51.194;5.112;2023-11-19T07:31:28;13.40;99.90
49829;DHT22;35723;51.194;5.112;2023-11-19T07:33:54;13.30;99.90
49829;DHT22;35723;51.194;5.112;2023-11-19T07:36:20;13.20;99.90
49829;DHT22;35723;51.194;5.112;2023-11-19T07:38:46;13.10;99.90
49829;DHT22;35723;51.194;5.112;2023-11-19T07:41:13;13.10;99.90
49829;DHT22;35723;51.194;5.112;2023-11-19T07:43:44;13.10;99.90
49829;DHT22;35723;51.194;5.112;2023-11-19T07:46:12;13.20;99.90
49829;DHT22;35723;51.194;5.112;2023-11-19T07:48:39;13.30;99.90
49829;DHT22;35723;51.194;5.112;2023-11-19T07:51:05;13.10;99.90
49829;DHT22;35723;51.194;5.112;2023-11-19T07:53:31;13.10;99.90
49829;DHT22;35723;51.194;5.112;2023-11-19T07:55:58;13.20;99.90
49829;DHT22;35723;51.194;5.112;2023-11-19T07:58:25;13.20;99.90
49829;DHT22;35723;51.194;5.112;2023-11-19T08:00:51;13.30;99.90
49829;DHT22;35723;51.194;5.112;2023-11-19T08:03:17;13.30;99.90
49829;DHT22;35723;51.194;5.112;2023-11-19T08:05:44;13.20;99.90
49829;DHT22;35723;51.194;5.112;2023-11-19T08:08:10;13.30;99.90
49829;DHT22;35723;51.194;5.112;2023-11-19T08:10:36;13.30;99.90
49829;DHT22;35723;51.194;5.112;2023-11-19T08:13:02;13.40;99.90
49829;DHT22;35723;51.194;5.112;2023-11-19T08:15:27;13.40;99.90
49829;DHT22;35723;51.194;5.112;2023-11-19T08:17:53;13.30;99.90
49829;DHT22;35723;51.194;5.112;2023-11-19T08:20:19;13.60;99.90
49829;DHT22;35723;51.194;5.112;2023-11-19T08:22:44;13.40;99.90
49829;DHT22;35723;51.194;5.112;2023-11-19T08:25:10;13.40;99.90
49829;DHT22;35723;51.194;5.112;2023-11-19T08:27:36;13.40;99.90
49829;DHT22;35723;51.194;5.112;2023-11-19T08:30:01;13.30;99.90
49829;DHT22;35723;51.194;5.112;2023-11-19T08:32:27;13.40;99.90
49829;DHT22;35723;51.194;5.112;2023-11-19T08:34:53;13.50;99.90
49829;DHT22;35723;51.194;5.112;2023-11-19T08:37:19;13.60;99.90
49829;DHT22;35723;51.194;5.112;2023-11-19T08:39:50;13.50;99.90
49829;DHT22;35723;51.194;5.112;2023-11-19T08:42:16;13.60;99.90
49829;DHT22;35723;51.194;5.112;2023-11-19T08:44:43;13.60;99.90
49829;DHT22;35723;51.194;5.112;2023-11-19T08:47:12;13.60;99.90
49829;DHT22;35723;51.194;5.112;2023-11-19T08:49:39;13.50;99.90
49829;DHT22;35723;51.194;5.112;2023-11-19T08:52:05;13.50;99.90
49829;DHT22;35723;51.194;5.112;2023-11-19T08:54:33;13.60;99.90
49829;DHT22;35723;51.194;5.112;2023-11-19T08:56:58;13.50;99.90
49829;DHT22;35723;51.194;5.112;2023-11-19T08:59:25;13.50;99.90
49829;DHT22;35723;51.194;5.112;2023-11-19T09:01:50;13.70;99.90
49829;DHT22;35723;51.194;5.112;2023-11-19T09:04:16;13.80;99.90
49829;DHT22;35723;51.194;5.112;2023-11-19T09:06:42;13.70;99.90
49829;DHT22;35723;51.194;5.112;2023-11-19T09:09:08;13.80;99.90
49829;DHT22;35723;51.194;5.112;2023-11-19T09:11:35;13.70;99.90
49829;DHT22;35723;51.194;5.112;2023-11-19T09:14:00;13.70;99.90
49829;DHT22;35723;51.194;5.112;2023-11-19T09:16:26;13.70;99.90
49829;DHT22;35723;51.194;5.112;2023-11-19T09:18:52;13.70;99.90
49829;DHT22;35723;51.194;5.112;2023-11-19T09:21:18;13.80;99.90
49829;DHT22;35723;51.194;5.112;2023-11-19T09:23:43;13.90;99.90
49829;DHT22;35723;51.194;5.112;2023-11-19T09:26:10;13.90;99.90
49829;DHT22;35723;51.194;5.112;2023-11-19T09:28:36;13.90;99.90
49829;DHT22;35723;51.194;5.112;2023-11-19T09:31:02;13.90;99.90
49829;DHT22;35723;51.194;5.112;2023-11-19T09:33:30;14.00;99.90
49829;DHT22;35723;51.194;5.112;2023-11-19T09:35:56;13.90;99.90
49829;DHT22;35723;51.194;5.112;2023-11-19T09:38:23;13.60;99.90
49829;DHT22;35723;51.194;5.112;2023-11-19T09:40:48;13.60;99.90
49829;DHT22;35723;51.194;5.112;2023-11-19T09:43:15;13.80;99.90
49829;DHT22;35723;51.194;5.112;2023-11-19T09:45:49;13.90;99.90
49829;DHT22;35723;51.194;5.112;2023-11-19T09:48:19;13.90;99.90
49829;DHT22;35723;51.194;5.112;2023-11-19T09:50:47;13.90;99.90
49829;DHT22;35723;51.194;5.112;2023-11-19T09:53:16;13.90;99.90
49829;DHT22;35723;51.194;5.112;2023-11-19T09:55:42;14.00;99.90
49829;DHT22;35723;51.194;5.112;2023-11-19T09:58:08;13.90;99.90
49829;DHT22;35723;51.194;5.112;2023-11-19T10:00:40;14.00;99.90
49829;DHT22;35723;51.194;5.112;2023-11-19T10:03:11;14.20;99.90
49829;DHT22;35723;51.194;5.112;2023-11-19T10:05:37;14.20;99.90
49829;DHT22;35723;51.194;5.112;2023-11-19T10:08:07;14.50;99.90
49829;DHT22;35723;51.194;5.112;2023-11-19T10:10:36;14.50;99.90
49829;DHT22;35723;51.194;5.112;2023-11-19T10:13:01;14.50;99.90
49829;DHT22;35723;51.194;5.112;2023-11-19T10:15:27;14.40;99.90
49829;DHT22;35723;51.194;5.112;2023-11-19T10:17:57;14.40;99.90
49829;DHT22;35723;51.194;5.112;2023-11-19T10:20:25;14.30;99.90
49829;DHT22;35723;51.194;5.112;2023-11-19T10:22:55;14.30;99.90
49829;DHT22;35723;51.194;5.112;2023-11-19T10:25:28;14.30;99.90
49829;DHT22;35723;51.194;5.112;2023-11-19T10:27:54;14.30;99.90
49829;DHT22;35723;51.194;5.112;2023-11-19T10:30:27;14.10;99.90
49829;DHT22;35723;51.194;5.112;2023-11-19T10:33:04;14.20;99.90
49829;DHT22;35723;51.194;5.112;2023-11-19T10:35:32;14.30;99.90
49829;DHT22;35723;51.194;5.112;2023-11-19T10:38:18;14.40;99.90
49829;DHT22;35723;51.194;5.112;2023-11-19T10:40:44;14.20;99.90
49829;DHT22;35723;51.194;5.112;2023-11-19T10:43:10;14.20;99.90
49829;DHT22;35723;51.194;5.112;2023-11-19T10:45:39;14.20;99.90
49829;DHT22;35723;51.194;5.112;2023-11-19T10:48:06;14.00;99.90
49829;DHT22;35723;51.194;5.112;2023-11-19T10:50:40;14.20;99.90
49829;DHT22;35723;51.194;5.112;2023-11-19T10:53:10;14.30;99.90
49829;DHT22;35723;51.194;5.112;2023-11-19T10:55:37;14.50;99.90
49829;DHT22;35723;51.194;5.112;2023-11-19T10:58:10;14.40;99.90
49829;DHT22;35723;51.194;5.112;2023-11-19T11:03:25;14.50;99.90
49829;DHT22;35723;51.194;5.112;2023-11-19T11:05:53;14.50;99.90
49829;DHT22;35723;51.194;5.112;2023-11-19T11:08:20;14.40;99.90
49829;DHT22;35723;51.194;5.112;2023-11-19T11:13:13;14.30;99.90
49829;DHT22;35723;51.194;5.112;2023-11-19T11:15:39;14.20;99.90
49829;DHT22;35723;51.194;5.112;2023-11-19T11:18:08;14.30;99.90
49829;DHT22;35723;51.194;5.112;2023-11-19T11:20:35;14.40;99.90
49829;DHT22;35723;51.194;5.112;2023-11-19T11:29:05;13.30;99.90
49829;DHT22;35723;51.194;5.112;2023-11-19T11:37:33;13.90;99.90
49829;DHT22;35723;51.194;5.112;2023-11-19T11:40:01;14.10;99.90
49829;DHT22;35723;51.194;5.112;2023-11-19T11:42:32;14.10;99.90
49829;DHT22;35723;51.194;5.112;2023-11-19T11:45:02;14.20;99.90
49829;DHT22;35723;51.194;5.112;2023-11-19T11:50:20;14.50;99.90
49829;DHT22;35723;51.194;5.112;2023-11-19T11:58:19;14.70;99.90
49829;DHT22;35723;51.194;5.112;2023-11-19T12:00:46;14.80;99.90
49829;DHT22;35723;51.194;5.112;2023-11-19T12:03:12;14.90;99.90
49829;DHT22;35723;51.194;5.112;2023-11-19T12:05:42;14.90;99.90
49829;DHT22;35723;51.194;5.112;2023-11-19T12:08:11;14.90;99.90
49829;DHT22;35723;51.194;5.112;2023-11-19T12:10:48;14.90;99.90
49829;DHT22;35723;51.194;5.112;2023-11-19T12:13:15;15.00;99.90
49829;DHT22;35723;51.194;5.112;2023-11-19T12:18:24;15.10;99.90
49829;DHT22;35723;51.194;5.112;2023-11-19T12:20:51;15.10;99.90
49829;DHT22;35723;51.194;5.112;2023-11-19T12:23:17;15.30;99.90
49829;DHT22;35723;51.194;5.112;2023-11-19T12:25:43;15.20;99.90
49829;DHT22;35723;51.194;5.112;2023-11-19T12:28:14;15.30;99.90
49829;DHT22;35723;51.194;5.112;2023-11-19T12:30:42;15.40;99.90
49829;DHT22;35723;51.194;5.112;2023-11-19T12:33:09;15.40;99.90
49829;DHT22;35723;51.194;5.112;2023-11-19T12:35:42;15.40;99.90
49829;DHT22;35723;51.194;5.112;2023-11-19T12:38:09;15.50;99.90
49829;DHT22;35723;51.194;5.112;2023-11-19T12:40:43;15.60;99.90
49829;DHT22;35723;51.194;5.112;2023-11-19T12:43:09;15.60;99.90
49829;DHT22;35723;51.194;5.112;2023-11-19T12:45:37;15.40;99.90
49829;DHT22;35723;51.194;5.112;2023-11-19T12:48:08;15.10;99.90
49829;DHT22;35723;51.194;5.112;2023-11-19T12:50:57;15.10;99.90
49829;DHT22;35723;51.194;5.112;2023-11-19T12:53:23;15.00;99.90
49829;DHT22;35723;51.194;5.112;2023-11-19T12:55:50;14.70;99.90
49829;DHT22;35723;51.194;5.112;2023-11-19T12:58:36;14.70;99.90
49829;DHT22;35723;51.194;5.112;2023-11-19T13:01:08;14.70;99.90
49829;DHT22;35723;51.194;5.112;2023-11-19T13:03:37;14.80;99.90
49829;DHT22;35723;51.194;5.112;2023-11-19T13:06:12;14.70;99.90
49829;DHT22;35723;51.194;5.112;2023-11-19T13:08:46;14.80;99.90
49829;DHT22;35723;51.194;5.112;2023-11-19T13:11:29;14.90;99.90
49829;DHT22;35723;51.194;5.112;2023-11-19T13:14:00;14.70;99.90
49829;DHT22;35723;51.194;5.112;2023-11-19T13:16:27;14.60;99.90
49829;DHT22;35723;51.194;5.112;2023-11-19T13:18:53;14.70;99.90
49829;DHT22;35723;51.194;5.112;2023-11-19T13:21:19;14.90;99.90
49829;DHT22;35723;51.194;5.112;2023-11-19T13:23:45;14.80;99.90
49829;DHT22;35723;51.194;5.112;2023-11-19T13:26:13;14.90;99.90
49829;DHT22;35723;51.194;5.112;2023-11-19T13:28:39;14.90;99.90
49829;DHT22;35723;51.194;5.112;2023-11-19T13:31:05;14.80;99.90
49829;DHT22;35723;51.194;5.112;2023-11-19T13:33:31;14.80;99.90
49829;DHT22;35723;51.194;5.112;2023-11-19T13:35:57;14.80;99.90
49829;DHT22;35723;51.194;5.112;2023-11-19T13:38:22;14.80;99.90
49829;DHT22;35723;51.194;5.112;2023-11-19T13:40:49;14.80;99.90
49829;DHT22;35723;51.194;5.112;2023-11-19T13:43:15;14.80;99.90
49829;DHT22;35723;51.194;5.112;2023-11-19T13:45:40;14.80;99.90
49829;DHT22;35723;51.194;5.112;2023-11-19T13:48:06;14.70;99.90
49829;DHT22;35723;51.194;5.112;2023-11-19T13:50:32;14.60;99.90
49829;DHT22;35723;51.194;5.112;2023-11-19T13:52:59;14.60;99.90
49829;DHT22;35723;51.194;5.112;2023-11-19T13:55:25;14.50;99.90
49829;DHT22;35723;51.194;5.112;2023-11-19T13:57:51;14.20;99.90
49829;DHT22;35723;51.194;5.112;2023-11-19T14:00:17;14.10;99.90
49829;DHT22;35723;51.194;5.112;2023-11-19T14:02:45;14.10;99.90
49829;DHT22;35723;51.194;5.112;2023-11-19T14:05:12;14.20;99.90
49829;DHT22;35723;51.194;5.112;2023-11-19T14:07:41;14.30;99.90
49829;DHT22;35723;51.194;5.112;2023-11-19T14:10:07;14.30;99.90
49829;DHT22;35723;51.194;5.112;2023-11-19T14:12:42;14.30;99.90
49829;DHT22;35723;51.194;5.112;2023-11-19T14:15:09;14.30;99.90
49829;DHT22;35723;51.194;5.112;2023-11-19T14:17:39;14.30;99.90
49829;DHT22;35723;51.194;5.112;2023-11-19T14:20:05;14.30;99.90
49829;DHT22;35723;51.194;5.112;2023-11-19T14:22:44;14.40;99.90
49829;DHT22;35723;51.194;5.112;2023-11-19T14:25:10;14.40;99.90
49829;DHT22;35723;51.194;5.112;2023-11-19T14:27:40;14.40;99.90
49829;DHT22;35723;51.194;5.112;2023-11-19T14:30:07;14.40;99.90
49829;DHT22;35723;51.194;5.112;2023-11-19T14:32:35;14.30;99.90
49829;DHT22;35723;51.194;5.112;2023-11-19T14:35:01;14.30;99.90
49829;DHT22;35723;51.194;5.112;2023-11-19T14:37:29;14.50;99.90
49829;DHT22;35723;51.194;5.112;2023-11-19T14:39:56;14.40;99.90
49829;DHT22;35723;51.194;5.112;2023-11-19T14:42:23;14.40;99.90
49829;DHT22;35723;51.194;5.112;2023-11-19T14:44:53;14.50;99.90
49829;DHT22;35723;51.194;5.112;2023-11-19T14:47:22;14.60;99.90
49829;DHT22;35723;51.194;5.112;2023-11-19T14:49:48;14.40;99.90
49829;DHT22;35723;51.194;5.112;2023-11-19T14:52:14;14.40;99.90
49829;DHT22;35723;51.194;5.112;2023-11-19T14:54:40;14.20;99.90
49829;DHT22;35723;51.194;5.112;2023-11-19T14:57:06;14.10;99.90
49829;DHT22;35723;51.194;5.112;2023-11-19T14:59:34;14.10;99.90
49829;DHT22;35723;51.194;5.112;2023-11-19T15:02:00;14.10;99.90
49829;DHT22;35723;51.194;5.112;2023-11-19T15:04:27;14.20;99.90
49829;DHT22;35723;51.194;5.112;2023-11-19T15:06:52;14.00;99.90
49829;DHT22;35723;51.194;5.112;2023-11-19T15:09:18;14.00;99.90
49829;DHT22;35723;51.194;5.112;2023-11-19T15:11:46;13.90;99.90
49829;DHT22;35723;51.194;5.112;2023-11-19T15:14:13;13.90;99.90
49829;DHT22;35723;51.194;5.112;2023-11-19T15:16:45;13.70;99.90
49829;DHT22;35723;51.194;5.112;2023-11-19T15:19:12;13.50;99.90
49829;DHT22;35723;51.194;5.112;2023-11-19T15:21:41;13.30;99.90
49829;DHT22;35723;51.194;5.112;2023-11-19T15:24:07;13.50;99.90
49829;DHT22;35723;51.194;5.112;2023-11-19T15:26:34;13.40;99.90
49829;DHT22;35723;51.194;5.112;2023-11-19T15:29:01;13.50;99.90
49829;DHT22;35723;51.194;5.112;2023-11-19T15:31:26;13.60;99.90
49829;DHT22;35723;51.194;5.112;2023-11-19T15:33:52;13.80;99.90
49829;DHT22;35723;51.194;5.112;2023-11-19T15:36:18;13.70;99.90
49829;DHT22;35723;51.194;5.112;2023-11-19T15:38:44;13.70;99.90
49829;DHT22;35723;51.194;5.112;2023-11-19T15:41:10;13.80;99.90
49829;DHT22;35723;51.194;5.112;2023-11-19T15:43:36;13.90;99.90
49829;DHT22;35723;51.194;5.112;2023-11-19T15:46:06;14.00;99.90
49829;DHT22;35723;51.194;5.112;2023-11-19T15:48:33;14.10;99.90
49829;DHT22;35723;51.194;5.112;2023-11-19T15:50:58;14.10;99.90
49829;DHT22;35723;51.194;5.112;2023-11-19T15:53:24;14.10;99.90
49829;DHT22;35723;51.194;5.112;2023-11-19T15:55:50;14.10;99.90
49829;DHT22;35723;51.194;5.112;2023-11-19T15:58:18;14.10;99.90